Time;durP1;ratioP1;P1;durP2;ratioP2;P2;SDS_P1;SDS_P2;PMS_P1;PMS_P2;Temp;Humidity;BMP_temperature;BMP_pressure;BME280_temperature;BME280_humidity;BME280_pressure;Samples;Min_cycle;Max_cycle;Signal;HPM_P1;HPM_P2
2023/06/07 00:00:33;;;;;;;1.50;1.40;;;24.90;58.20;;;;;;5052453;28;20106;-63
2023/06/07 00:03:00;;;;;;;1.50;1.30;;;24.90;58.20;;;;;;5051154;28;20045;-63
2023/06/07 00:05:31;;;;;;;1.08;1.08;;;24.90;58.30;;;;;;5051255;28;20045;-63
2023/06/07 00:07:58;;;;;;;1.50;1.17;;;24.90;58.30;;;;;;5051758;28;20500;-62
2023/06/07 00:10:25;;;;;;;1.52;1.42;;;24.80;58.20;;;;;;5051393;28;20045;-63
2023/06/07 00:12:52;;;;;;;1.65;1.55;;;24.90;58.30;;;;;;5051799;28;20099;-62
2023/06/07 00:15:20;;;;;;;1.30;1.20;;;24.90;58.30;;;;;;5051178;28;20374;-63
2023/06/07 00:17:47;;;;;;;1.30;1.20;;;24.90;58.30;;;;;;5051939;28;20041;-62
2023/06/07 00:20:14;;;;;;;1.33;1.20;;;24.90;58.30;;;;;;5051734;28;20055;-63
2023/06/07 00:22:42;;;;;;;1.35;1.25;;;24.80;58.20;;;;;;5051482;28;20049;-62
2023/06/07 00:25:09;;;;;;;1.15;1.15;;;24.80;58.20;;;;;;5052216;28;20049;-62
2023/06/07 00:27:37;;;;;;;1.17;1.15;;;24.80;58.20;;;;;;5071518;28;20074;-63
2023/06/07 00:30:04;;;;;;;1.10;1.10;;;24.80;58.20;;;;;;5071726;28;20469;-63
2023/06/07 00:32:32;;;;;;;0.90;0.90;;;24.80;58.20;;;;;;5087386;28;20052;-63
2023/06/07 00:34:59;;;;;;;1.85;1.10;;;24.80;58.20;;;;;;5071855;28;20087;-62
2023/06/07 00:37:26;;;;;;;1.08;1.02;;;24.80;58.20;;;;;;5071251;28;20053;-63
2023/06/07 00:39:54;;;;;;;1.40;1.30;;;24.80;58.10;;;;;;5070970;28;20106;-63
2023/06/07 00:42:21;;;;;;;1.50;1.40;;;24.80;58.10;;;;;;5072171;28;20048;-63
2023/06/07 00:44:48;;;;;;;1.10;1.10;;;24.80;58.10;;;;;;5052425;28;20440;-62
2023/06/07 00:47:15;;;;;;;1.35;1.25;;;24.80;58.10;;;;;;5066026;28;20052;-63
2023/06/07 00:49:44;;;;;;;1.02;1.00;;;24.80;58.10;;;;;;5051618;28;20140;-62
2023/06/07 00:52:12;;;;;;;1.80;1.70;;;24.80;58.10;;;;;;5051051;28;20057;-63
2023/06/07 00:54:40;;;;;;;1.20;1.10;;;24.80;58.10;;;;;;5050977;28;20098;-62
2023/06/07 00:57:07;;;;;;;1.45;1.35;;;24.80;58.10;;;;;;5049942;28;20044;-64
2023/06/07 00:59:37;;;;;;;1.45;1.35;;;24.80;58.10;;;;;;5051438;28;20048;-63
2023/06/07 01:02:06;;;;;;;1.52;1.40;;;24.80;58.10;;;;;;5051119;28;20041;-63
2023/06/07 01:04:34;;;;;;;1.27;1.17;;;24.80;58.00;;;;;;5051826;28;20041;-63
2023/06/07 01:07:02;;;;;;;1.17;1.10;;;24.90;58.10;;;;;;5049402;28;20057;-62
2023/06/07 01:09:30;;;;;;;1.25;1.13;;;24.80;58.00;;;;;;5050333;28;20048;-63
2023/06/07 01:11:58;;;;;;;1.67;1.27;;;24.80;58.60;;;;;;5053739;28;20452;-62
2023/06/07 01:14:26;;;;;;;2.85;1.42;;;24.80;58.00;;;;;;5053903;28;20135;-62
2023/06/07 01:16:53;;;;;;;1.20;1.20;;;24.80;58.00;;;;;;5055304;28;20485;-62
2023/06/07 01:19:23;;;;;;;1.38;1.27;;;24.80;58.00;;;;;;5055487;28;20485;-63
2023/06/07 01:21:54;;;;;;;1.02;1.02;;;24.80;58.00;;;;;;5053897;28;20099;-62
2023/06/07 01:24:22;;;;;;;1.40;1.30;;;24.80;58.00;;;;;;5052147;28;20497;-63
2023/06/07 01:26:57;;;;;;;1.20;1.10;;;24.80;58.00;;;;;;5054411;28;20102;-62
2023/06/07 01:29:28;;;;;;;0.90;0.90;;;24.80;58.00;;;;;;5055282;28;20059;-62
2023/06/07 01:31:57;;;;;;;1.10;1.05;;;24.80;58.00;;;;;;5055456;28;20061;-63
2023/06/07 01:34:25;;;;;;;1.08;1.00;;;24.80;58.00;;;;;;5059815;28;20131;-63
2023/06/07 01:36:55;;;;;;;1.27;1.17;;;24.80;58.00;;;;;;5074709;28;20144;-62
2023/06/07 01:39:24;;;;;;;1.42;1.30;;;24.80;57.90;;;;;;5075139;28;20699;-63
2023/06/07 01:41:52;;;;;;;1.30;1.20;;;24.90;58.00;;;;;;5075235;28;20087;-63
2023/06/07 01:44:20;;;;;;;1.42;1.33;;;24.90;57.90;;;;;;5062704;28;20103;-63
2023/06/07 01:46:47;;;;;;;1.17;1.08;;;24.90;57.90;;;;;;5055224;28;20085;-62
2023/06/07 01:49:19;;;;;;;1.17;1.10;;;24.90;57.90;;;;;;5054766;28;20052;-64
2023/06/07 01:51:46;;;;;;;1.20;1.05;;;24.90;57.80;;;;;;5055285;28;20045;-63
2023/06/07 01:54:15;;;;;;;1.48;1.38;;;24.90;57.80;;;;;;5055007;28;20463;-62
2023/06/07 01:57:21;;;;;;;1.63;1.30;;;24.90;57.80;;;;;;5054301;28;20509;-63
2023/06/07 02:00:18;;;;;;;1.20;1.10;;;24.90;57.70;;;;;;5054221;28;20107;-63
2023/06/07 02:02:58;;;;;;;1.00;1.00;;;24.90;57.70;;;;;;5054524;28;20052;-63
2023/06/07 02:05:38;;;;;;;1.13;1.02;;;24.90;57.70;;;;;;5054643;28;20049;-63
2023/06/07 02:08:08;;;;;;;;;;;24.90;57.70;;;;;;5055542;28;20053;-63
2023/06/07 02:10:37;;;;;;;1.20;1.20;;;24.90;57.70;;;;;;5054376;28;19975;-63
2023/06/07 02:13:06;;;;;;;1.03;0.87;;;24.90;57.70;;;;;;5054603;28;20445;-63
2023/06/07 02:15:33;;;;;;;1.67;1.27;;;24.90;57.70;;;;;;5053816;28;20547;-63
2023/06/07 02:18:01;;;;;;;1.23;1.13;;;24.90;57.70;;;;;;5054334;28;20045;-62
2023/06/07 02:20:30;;;;;;;1.75;1.65;;;24.90;57.70;;;;;;5054646;28;20049;-63
2023/06/07 02:22:57;;;;;;;0.80;0.80;;;24.90;57.70;;;;;;5052092;28;20473;-62
2023/06/07 02:25:25;;;;;;;1.10;1.10;;;24.80;57.70;;;;;;5053687;28;20052;-63
2023/06/07 02:27:53;;;;;;;1.33;1.23;;;24.80;57.70;;;;;;5053666;28;20140;-63
2023/06/07 02:30:20;;;;;;;1.05;0.95;;;24.80;57.70;;;;;;5054041;28;20053;-63
2023/06/07 02:32:53;;;;;;;1.15;1.05;;;24.80;58.20;;;;;;5053080;28;20052;-63
2023/06/07 02:35:21;;;;;;;1.27;1.20;;;24.90;57.70;;;;;;5053208;28;20049;-63
2023/06/07 02:37:49;;;;;;;1.73;1.10;;;24.80;57.70;;;;;;5052742;28;20048;-63
2023/06/07 02:40:16;;;;;;;1.50;1.40;;;24.80;57.70;;;;;;5052918;28;20170;-63
2023/06/07 02:42:46;;;;;;;0.80;0.80;;;24.80;57.80;;;;;;5053149;28;20152;-63
2023/06/07 02:45:14;;;;;;;1.40;1.35;;;24.80;57.70;;;;;;5053139;28;20055;-63
2023/06/07 02:47:41;;;;;;;1.25;1.25;;;24.80;57.70;;;;;;5052912;28;20114;-63
2023/06/07 02:50:09;;;;;;;1.13;1.05;;;24.80;57.70;;;;;;5072181;28;20045;-63
2023/06/07 02:52:41;;;;;;;1.27;1.17;;;24.80;57.70;;;;;;5073047;28;20053;-63
2023/06/07 02:55:08;;;;;;;1.20;1.13;;;24.80;57.70;;;;;;5056904;28;20076;-63
2023/06/07 02:57:35;;;;;;;1.08;1.08;;;24.80;57.70;;;;;;5052455;28;20419;-63
2023/06/07 03:00:11;;;;;;;1.50;1.00;;;24.80;57.70;;;;;;5052944;28;20095;-63
2023/06/07 03:02:38;;;;;;;0.82;0.82;;;24.80;57.70;;;;;;5052826;28;20041;-63
2023/06/07 03:05:07;;;;;;;0.90;0.90;;;24.80;57.70;;;;;;5052836;28;20053;-63
2023/06/07 03:07:35;;;;;;;0.90;0.90;;;24.80;57.70;;;;;;5052469;28;20107;-63
2023/06/07 03:10:03;;;;;;;1.00;1.00;;;24.80;57.70;;;;;;5051881;28;20049;-63
2023/06/07 03:12:31;;;;;;;1.63;1.10;;;24.80;57.70;;;;;;5052617;28;20044;-63
2023/06/07 03:14:58;;;;;;;1.17;1.17;;;24.80;57.70;;;;;;5066675;28;20049;-63
2023/06/07 03:17:25;;;;;;;0.95;0.95;;;24.80;57.60;;;;;;5052762;28;20056;-63
2023/06/07 03:19:53;;;;;;;1.00;1.00;;;24.80;57.60;;;;;;5052212;28;20264;-63
2023/06/07 03:22:21;;;;;;;1.13;1.13;;;24.80;57.60;;;;;;5053597;28;20447;-63
2023/06/07 03:24:52;;;;;;;1.20;1.10;;;24.80;57.60;;;;;;5051847;28;20045;-63
2023/06/07 03:27:22;;;;;;;1.65;1.10;;;24.80;57.60;;;;;;5052127;28;20045;-63
2023/06/07 03:29:49;;;;;;;1.00;1.00;;;24.80;57.60;;;;;;5051795;28;20122;-63
2023/06/07 03:32:17;;;;;;;0.65;0.65;;;24.80;57.50;;;;;;5051922;28;20098;-62
2023/06/07 03:34:44;;;;;;;0.90;0.90;;;24.80;57.50;;;;;;5052740;28;20048;-63
2023/06/07 03:37:11;;;;;;;0.90;0.90;;;24.90;57.60;;;;;;5056995;28;20055;-63
2023/06/07 03:39:38;;;;;;;1.20;1.20;;;24.80;57.50;;;;;;5063626;28;20045;-63
2023/06/07 03:42:06;;;;;;;0.90;0.90;;;24.80;57.50;;;;;;5052202;28;20045;-63
2023/06/07 03:44:34;;;;;;;0.82;0.82;;;24.80;57.40;;;;;;5052046;28;20053;-64
2023/06/07 03:47:01;;;;;;;1.13;1.00;;;24.80;57.40;;;;;;5064006;28;20136;-63
2023/06/07 03:49:28;;;;;;;0.82;0.82;;;24.80;57.40;;;;;;5065280;28;20443;-63
2023/06/07 03:51:55;;;;;;;1.08;1.08;;;24.90;57.40;;;;;;5067618;28;20485;-63
2023/06/07 03:54:22;;;;;;;1.63;1.52;;;24.90;57.30;;;;;;5071374;28;20044;-63
2023/06/07 03:56:49;;;;;;;1.83;1.38;;;24.90;57.30;;;;;;5072415;28;20051;-63
2023/06/07 03:59:20;;;;;;;0.82;0.82;;;24.90;57.30;;;;;;5070718;28;20381;-63
2023/06/07 04:01:49;;;;;;;0.90;0.90;;;24.90;57.20;;;;;;5072915;28;20052;-63
2023/06/07 04:04:16;;;;;;;2.08;1.02;;;24.90;57.20;;;;;;5067335;28;20041;-63
2023/06/07 04:06:44;;;;;;;0.80;0.80;;;24.90;57.10;;;;;;5051344;28;20528;-63
2023/06/07 04:09:11;;;;;;;1.33;1.17;;;24.90;57.10;;;;;;5050874;28;20481;-62
2023/06/07 04:11:38;;;;;;;1.20;1.20;;;24.90;57.10;;;;;;5051798;28;20131;-64
2023/06/07 04:14:05;;;;;;;1.50;1.10;;;24.90;57.00;;;;;;5051517;28;20118;-63
2023/06/07 04:16:32;;;;;;;2.58;1.48;;;25.00;57.00;;;;;;5051624;28;20045;-63
2023/06/07 04:19:00;;;;;;;0.90;0.90;;;25.00;57.00;;;;;;5052003;28;20048;-63
2023/06/07 04:21:28;;;;;;;1.00;1.00;;;25.00;56.90;;;;;;5052009;28;20053;-62
2023/06/07 04:23:56;;;;;;;1.00;1.00;;;25.00;56.90;;;;;;5052003;28;20547;-63
2023/06/07 04:26:24;;;;;;;0.75;0.75;;;25.00;56.90;;;;;;5051613;28;20084;-63
2023/06/07 04:28:51;;;;;;;1.13;1.10;;;25.00;56.90;;;;;;5067784;28;20412;-63
2023/06/07 04:31:22;;;;;;;0.80;0.80;;;25.00;56.90;;;;;;5052027;28;20489;-63
2023/06/07 04:33:50;;;;;;;0.73;0.73;;;25.00;56.90;;;;;;5071209;28;20045;-63
2023/06/07 04:36:18;;;;;;;0.93;0.90;;;25.00;56.90;;;;;;5071074;28;20102;-63
2023/06/07 04:38:46;;;;;;;1.20;1.20;;;24.90;57.00;;;;;;5067518;28;20052;-63
2023/06/07 04:41:30;;;;;;;1.13;1.02;;;24.80;57.10;;;;;;5070635;28;20056;-62
2023/06/07 04:44:00;;;;;;;2.08;1.45;;;24.70;57.40;;;;;;5072081;28;20454;-62
2023/06/07 04:46:28;;;;;;;1.50;1.40;;;24.50;57.10;;;;;;5070032;28;20037;-63
2023/06/07 04:48:55;;;;;;;1.30;1.30;;;24.20;56.50;;;;;;5068610;28;20048;-61
2023/06/07 04:51:25;;;;;;;1.40;1.30;;;23.90;56.00;;;;;;5068585;28;20048;-62
2023/06/07 04:54:01;;;;;;;1.50;1.40;;;23.50;55.60;;;;;;5071373;28;20047;-63
2023/06/07 04:56:28;;;;;;;1.70;1.60;;;23.10;55.60;;;;;;5072272;28;20048;-62
2023/06/07 04:58:56;;;;;;;1.58;1.48;;;22.80;56.10;;;;;;5071149;28;20048;-63
2023/06/07 05:01:24;;;;;;;1.50;1.40;;;22.40;56.40;;;;;;5065070;28;20131;-62
2023/06/07 05:04:02;;;;;;;1.67;1.58;;;22.10;57.70;;;;;;5070999;28;20056;-63
2023/06/07 05:06:31;;;;;;;2.33;2.13;;;21.90;57.60;;;;;;5058767;28;20048;-62
2023/06/07 05:08:58;;;;;;;2.28;1.70;;;21.60;58.20;;;;;;5091031;28;20135;-69
2023/06/07 05:11:26;;;;;;;1.75;1.60;;;21.40;58.70;;;;;;5072895;28;20076;-71
2023/06/07 05:13:54;;;;;;;2.33;2.13;;;21.30;59.10;;;;;;5075208;28;20044;-71
2023/06/07 05:16:21;;;;;;;2.53;2.33;;;21.10;58.80;;;;;;5074989;28;20079;-70
2023/06/07 05:18:49;;;;;;;1.90;1.70;;;20.90;59.50;;;;;;5067462;28;20049;-73
2023/06/07 05:21:17;;;;;;;2.30;2.10;;;20.80;60.10;;;;;;5078607;28;20057;-71
2023/06/07 05:23:45;;;;;;;2.33;2.00;;;20.60;59.80;;;;;;5066296;28;20444;-70
2023/06/07 05:26:12;;;;;;;3.60;2.38;;;20.50;59.80;;;;;;5063949;28;20107;-70
2023/06/07 05:28:39;;;;;;;2.30;2.10;;;20.40;60.40;;;;;;5068672;28;20491;-70
2023/06/07 05:31:07;;;;;;;2.40;2.20;;;20.30;60.80;;;;;;5067414;28;20117;-73
2023/06/07 05:33:38;;;;;;;2.00;1.90;;;20.20;59.80;;;;;;5065629;28;20495;-70
2023/06/07 05:36:06;;;;;;;2.83;2.08;;;20.10;60.20;;;;;;5064748;28;20644;-70
2023/06/07 05:38:33;;;;;;;2.40;2.10;;;20.10;60.70;;;;;;5059396;28;20040;-70
2023/06/07 05:41:00;;;;;;;2.85;2.33;;;20.10;61.90;;;;;;5065637;28;20048;-71
2023/06/07 05:43:28;;;;;;;2.80;2.45;;;20.00;60.20;;;;;;5064340;28;20047;-72
2023/06/07 05:45:55;;;;;;;2.70;2.28;;;19.80;59.90;;;;;;5065632;28;20427;-71
2023/06/07 05:48:23;;;;;;;2.30;2.10;;;19.80;61.20;;;;;;5083811;28;20465;-71
2023/06/07 05:50:52;;;;;;;2.20;2.10;;;19.80;61.70;;;;;;5064010;28;20052;-72
2023/06/07 05:53:19;;;;;;;3.33;3.00;;;19.70;61.00;;;;;;5062945;28;20047;-71
2023/06/07 05:55:48;;;;;;;6.32;1.98;;;19.70;60.50;;;;;;5062507;28;20057;-71
2023/06/07 05:58:15;;;;;;;2.28;2.15;;;19.60;60.60;;;;;;5066555;28;20504;-74
2023/06/07 06:00:44;;;;;;;3.13;2.83;;;19.60;61.30;;;;;;5064326;28;20076;-71
2023/06/07 06:03:11;;;;;;;2.90;2.08;;;19.60;61.40;;;;;;5066685;28;20373;-71
2023/06/07 06:05:38;;;;;;;3.58;2.90;;;19.60;62.30;;;;;;5061808;28;20131;-71
2023/06/07 06:08:05;;;;;;;3.83;2.70;;;19.60;61.10;;;;;;5060565;28;20116;-71
2023/06/07 06:10:33;;;;;;;5.25;2.88;;;19.40;59.40;;;;;;5062465;28;20067;-71
2023/06/07 06:13:02;;;;;;;3.95;2.20;;;19.40;61.60;;;;;;5066556;28;20060;-70
2023/06/07 06:15:29;;;;;;;3.53;3.00;;;19.30;62.30;;;;;;5064432;28;20078;-72
2023/06/07 06:17:56;;;;;;;2.70;2.50;;;19.30;62.70;;;;;;5067135;28;20048;-71
2023/06/07 06:20:23;;;;;;;4.88;3.65;;;19.30;60.90;;;;;;5063452;28;20143;-72
2023/06/07 06:22:51;;;;;;;4.10;3.70;;;19.20;64.90;;;;;;5060639;28;20269;-70
2023/06/07 06:25:18;;;;;;;4.95;4.22;;;19.20;63.50;;;;;;5064381;28;20500;-70
2023/06/07 06:27:46;;;;;;;5.10;3.78;;;19.30;64.50;;;;;;5061126;28;20545;-72
2023/06/07 06:30:13;;;;;;;5.97;3.20;;;19.30;62.70;;;;;;5061788;28;20044;-70
2023/06/07 06:32:40;;;;;;;5.97;3.28;;;19.30;62.10;;;;;;5065869;28;20051;-71
2023/06/07 06:35:09;;;;;;;5.97;2.92;;;19.40;63.90;;;;;;5064210;28;20066;-72
2023/06/07 06:37:36;;;;;;;5.38;3.60;;;19.40;63.00;;;;;;5058465;28;20044;-71
2023/06/07 06:40:04;;;;;;;5.35;4.03;;;19.30;63.10;;;;;;5062476;28;20470;-70
2023/06/07 06:42:32;;;;;;;6.85;3.17;;;19.30;63.60;;;;;;5061038;28;20573;-70
2023/06/07 06:44:59;;;;;;;5.22;3.78;;;19.30;63.40;;;;;;5063435;28;20048;-71
2023/06/07 06:47:27;;;;;;;7.53;3.90;;;19.40;64.40;;;;;;5061787;28;20056;-70
2023/06/07 06:49:54;;;;;;;6.88;3.65;;;19.40;63.20;;;;;;5060458;28;20052;-70
2023/06/07 06:52:24;;;;;;;3.88;3.28;;;19.40;64.40;;;;;;5064803;28;20057;-70
2023/06/07 06:54:51;;;;;;;5.03;3.27;;;19.40;62.80;;;;;;5061954;28;20048;-69
2023/06/07 06:57:18;;;;;;;4.00;3.55;;;19.40;62.60;;;;;;5062370;28;20309;-69
2023/06/07 06:59:46;;;;;;;3.85;3.33;;;19.40;62.50;;;;;;5061695;28;20094;-71
2023/06/07 07:02:16;;;;;;;6.93;3.08;;;19.40;63.70;;;;;;5045050;28;20048;-71
2023/06/07 07:04:43;;;;;;;4.03;3.28;;;19.40;63.30;;;;;;5065820;28;20531;-71
2023/06/07 07:07:11;;;;;;;3.40;2.97;;;19.40;62.60;;;;;;5057448;28;20094;-70
2023/06/07 07:09:38;;;;;;;5.00;3.90;;;19.50;63.50;;;;;;5064094;28;20515;-70
2023/06/07 07:12:07;;;;;;;6.13;3.83;;;19.50;63.70;;;;;;5063789;28;20481;-70
2023/06/07 07:14:34;;;;;;;5.28;3.53;;;19.50;63.60;;;;;;5059896;28;20620;-71
2023/06/07 07:17:01;;;;;;;4.30;3.20;;;19.40;64.00;;;;;;5062387;28;20473;-70
2023/06/07 07:19:29;;;;;;;5.55;3.63;;;19.50;62.50;;;;;;5064098;28;20048;-68
2023/06/07 07:21:58;;;;;;;3.40;3.10;;;19.50;63.00;;;;;;5060741;28;20671;-70
2023/06/07 07:24:26;;;;;;;9.30;3.63;;;19.50;64.10;;;;;;5074820;28;20087;-71
2023/06/07 07:26:53;;;;;;;5.28;3.25;;;19.60;63.50;;;;;;5065176;28;20102;-71
2023/06/07 07:29:20;;;;;;;3.15;2.80;;;19.50;61.40;;;;;;5064900;28;20065;-69
2023/06/07 07:31:47;;;;;;;3.38;3.08;;;19.50;63.50;;;;;;5063813;28;20094;-71
2023/06/07 07:34:15;;;;;;;3.50;3.20;;;19.50;62.60;;;;;;5058820;28;20408;-72
2023/06/07 07:36:43;;;;;;;3.60;2.70;;;19.50;62.00;;;;;;5054763;28;20071;-70
2023/06/07 07:39:11;;;;;;;3.63;3.00;;;19.50;62.90;;;;;;5058235;28;20139;-72
2023/06/07 07:41:41;;;;;;;3.95;3.30;;;19.60;64.00;;;;;;5057280;28;20045;-70
2023/06/07 07:44:09;;;;;;;3.78;3.08;;;19.60;61.70;;;;;;5061735;28;20049;-71
2023/06/07 07:46:36;;;;;;;4.65;3.25;;;19.60;60.60;;;;;;5060076;28;20041;-69
2023/06/07 07:49:04;;;;;;;5.05;3.80;;;19.50;62.60;;;;;;5062838;28;20061;-69
2023/06/07 07:51:31;;;;;;;6.07;3.50;;;19.60;63.00;;;;;;5065431;28;20496;-69
2023/06/07 07:53:58;;;;;;;4.78;3.33;;;19.60;61.10;;;;;;5057826;28;20048;-68
2023/06/07 07:56:26;;;;;;;6.13;4.05;;;19.50;62.80;;;;;;5059902;28;20051;-69
2023/06/07 07:58:53;;;;;;;4.60;3.10;;;19.40;63.10;;;;;;5060175;28;20072;-70
2023/06/07 08:01:21;;;;;;;5.63;3.40;;;19.30;62.30;;;;;;5060548;28;20629;-69
2023/06/07 08:03:48;;;;;;;6.20;3.75;;;19.30;62.70;;;;;;5062503;28;20435;-70
2023/06/07 08:06:16;;;;;;;5.78;3.53;;;19.30;63.50;;;;;;5061081;28;20453;-68
2023/06/07 08:08:46;;;;;;;4.03;3.17;;;19.20;62.40;;;;;;5064253;28;20135;-70
2023/06/07 08:11:14;;;;;;;4.23;3.47;;;19.20;61.20;;;;;;5061106;28;20048;-69
2023/06/07 08:13:41;;;;;;;6.95;3.53;;;19.20;64.10;;;;;;5058240;28;20045;-70
2023/06/07 08:16:08;;;;;;;4.22;3.53;;;19.20;64.20;;;;;;5062458;28;20041;-70
2023/06/07 08:18:36;;;;;;;7.72;3.53;;;19.30;61.70;;;;;;5048475;28;20060;-74
2023/06/07 08:21:04;;;;;;;4.90;3.78;;;19.20;61.50;;;;;;5066527;28;20412;-69
2023/06/07 08:23:31;;;;;;;4.70;3.55;;;19.30;63.60;;;;;;5065240;28;20396;-69
2023/06/07 08:25:59;;;;;;;4.00;3.35;;;19.40;63.20;;;;;;5066696;28;20148;-70
2023/06/07 08:28:26;;;;;;;6.65;3.90;;;19.50;62.40;;;;;;5067844;28;20052;-70
2023/06/07 08:30:54;;;;;;;6.05;3.45;;;19.50;62.50;;;;;;5066756;28;20061;-69
2023/06/07 08:33:21;;;;;;;10.02;4.30;;;19.50;62.30;;;;;;5071199;28;20131;-70
2023/06/07 08:35:48;;;;;;;7.25;3.30;;;19.50;62.60;;;;;;5065639;28;20095;-69
2023/06/07 08:38:16;;;;;;;3.28;2.95;;;19.50;62.90;;;;;;5069852;28;20106;-70
2023/06/07 08:40:43;;;;;;;6.75;4.13;;;19.50;63.00;;;;;;5064290;28;20056;-70
2023/06/07 08:43:10;;;;;;;6.57;3.42;;;19.50;61.70;;;;;;5067726;28;20052;-71
2023/06/07 08:45:39;;;;;;;5.10;3.33;;;19.50;62.10;;;;;;5062531;28;20101;-70
2023/06/07 08:48:12;;;;;;;5.75;3.25;;;19.50;62.10;;;;;;5067428;28;20069;-70
2023/06/07 08:50:41;;;;;;;3.15;2.85;;;19.50;62.60;;;;;;5065733;28;20048;-70
2023/06/07 08:53:13;;;;;;;4.05;3.40;;;19.50;61.80;;;;;;5062187;28;20045;-70
2023/06/07 08:55:42;;;;;;;5.63;3.53;;;19.50;62.70;;;;;;5066086;28;20511;-70
2023/06/07 08:58:11;;;;;;;5.88;3.67;;;19.50;62.20;;;;;;5068701;28;20047;-70
2023/06/07 09:00:38;;;;;;;5.93;2.70;;;19.60;62.60;;;;;;5066301;28;20044;-70
2023/06/07 09:03:06;;;;;;;6.82;3.67;;;19.50;62.00;;;;;;5063578;28;20044;-69
2023/06/07 09:05:33;;;;;;;4.65;3.53;;;19.60;62.10;;;;;;5065020;28;20385;-70
2023/06/07 09:08:02;;;;;;;6.28;3.38;;;19.60;62.50;;;;;;5061527;28;20061;-69
2023/06/07 09:10:30;;;;;;;4.85;3.10;;;19.60;62.20;;;;;;5064710;28;20445;-70
2023/06/07 09:12:57;;;;;;;3.28;2.92;;;19.60;62.30;;;;;;5062884;28;20044;-69
2023/06/07 09:15:25;;;;;;;5.05;3.47;;;19.50;62.00;;;;;;5065690;28;20450;-73
2023/06/07 09:18:02;;;;;;;3.60;2.85;;;19.50;62.70;;;;;;5067811;28;20048;-71
2023/06/07 09:20:31;;;;;;;3.55;3.25;;;19.50;62.70;;;;;;5062827;28;20565;-70
2023/06/07 09:23:06;;;;;;;4.68;3.42;;;19.50;62.60;;;;;;5064172;28;20094;-72
2023/06/07 09:25:34;;;;;;;2.65;2.38;;;19.50;62.90;;;;;;5067705;28;21909;-71
2023/06/07 09:28:02;;;;;;;5.20;2.67;;;19.50;62.80;;;;;;5066171;28;20147;-71
2023/06/07 09:30:30;;;;;;;5.03;3.33;;;19.50;63.80;;;;;;5063877;28;20522;-71
2023/06/07 09:32:57;;;;;;;4.18;2.45;;;19.60;63.80;;;;;;5065897;28;20056;-71
2023/06/07 09:35:25;;;;;;;5.97;2.95;;;19.70;63.80;;;;;;5066961;28;20044;-72
2023/06/07 09:37:54;;;;;;;4.00;2.67;;;19.70;62.20;;;;;;5063179;28;20110;-70
2023/06/07 09:40:23;;;;;;;4.70;2.67;;;19.80;63.10;;;;;;5059962;28;20049;-69
2023/06/07 09:42:59;;;;;;;2.83;2.30;;;19.80;63.40;;;;;;5059751;28;20492;-68
2023/06/07 09:45:27;;;;;;;4.05;2.72;;;19.90;62.60;;;;;;5059149;28;20059;-69
2023/06/07 09:48:07;;;;;;;2.75;2.53;;;19.90;62.50;;;;;;5057324;28;20049;-71
2023/06/07 09:50:34;;;;;;;2.70;2.33;;;19.90;62.50;;;;;;5063834;28;20048;-71
2023/06/07 09:53:01;;;;;;;9.45;2.80;;;20.00;62.70;;;;;;5076160;28;20474;-69
2023/06/07 09:55:29;;;;;;;2.53;2.22;;;20.00;62.80;;;;;;5061276;28;20059;-69
2023/06/07 09:57:57;;;;;;;5.28;2.80;;;20.00;62.30;;;;;;5068393;28;20040;-71
2023/06/07 10:00:26;;;;;;;5.07;3.30;;;20.10;62.20;;;;;;5066176;28;20045;-70
2023/06/07 10:03:05;;;;;;;4.70;2.35;;;20.10;62.10;;;;;;5068506;28;20060;-69
2023/06/07 10:05:34;;;;;;;3.40;2.22;;;20.20;61.70;;;;;;5065330;28;20041;-71
2023/06/07 10:08:03;;;;;;;6.10;2.42;;;20.20;61.50;;;;;;5066279;28;20056;-69
2023/06/07 10:10:32;;;;;;;3.60;2.20;;;20.30;60.80;;;;;;5061792;28;20052;-69
2023/06/07 10:13:04;;;;;;;3.17;2.03;;;20.30;60.60;;;;;;5060657;28;20053;-70
2023/06/07 10:15:34;;;;;;;2.70;1.77;;;20.30;61.40;;;;;;5068282;28;20044;-69
2023/06/07 10:18:13;;;;;;;2.83;2.63;;;20.30;61.40;;;;;;5065276;28;20051;-71
2023/06/07 10:20:51;;;;;;;2.22;2.08;;;20.40;60.40;;;;;;5063398;28;20476;-69
2023/06/07 10:23:28;;;;;;;2.60;1.80;;;20.40;60.90;;;;;;5063286;28;20060;-70
2023/06/07 10:26:02;;;;;;;2.45;1.88;;;20.40;60.50;;;;;;5067522;28;20128;-70
2023/06/07 10:28:50;;;;;;;2.08;1.90;;;20.40;60.00;;;;;;5065953;28;20052;-70
2023/06/07 10:31:20;;;;;;;2.55;2.28;;;20.40;60.40;;;;;;5062575;28;20044;-70
2023/06/07 10:33:50;;;;;;;3.00;2.00;;;20.40;61.20;;;;;;5063809;28;20072;-70
2023/06/07 10:36:23;;;;;;;2.25;2.10;;;20.40;60.50;;;;;;5068203;28;20059;-71
2023/06/07 10:38:54;;;;;;;2.83;1.83;;;20.40;60.70;;;;;;5065039;28;20381;-70
2023/06/07 10:41:22;;;;;;;2.97;1.95;;;20.40;61.70;;;;;;5064087;28;20049;-70
2023/06/07 10:43:49;;;;;;;3.25;1.98;;;20.40;61.30;;;;;;5066484;28;20052;-70
2023/06/07 10:46:23;;;;;;;4.18;2.60;;;20.30;60.80;;;;;;5064982;28;20102;-69
2023/06/07 10:48:53;;;;;;;6.53;2.70;;;20.30;62.60;;;;;;5062232;28;20056;-69
2023/06/07 10:51:59;;;;;;;2.40;2.20;;;20.30;62.30;;;;;;5065436;28;20400;-68
2023/06/07 10:54:32;;;;;;;2.78;2.30;;;20.30;61.50;;;;;;5062664;28;20541;-68
2023/06/07 10:57:00;;;;;;;2.60;1.83;;;20.20;61.30;;;;;;5060478;28;20052;-70
2023/06/07 10:59:28;;;;;;;6.05;2.55;;;20.10;61.50;;;;;;5065777;28;20044;-71
2023/06/07 11:02:23;;;;;;;2.70;2.50;;;20.10;61.60;;;;;;5060151;28;20099;-71
2023/06/07 11:05:03;;;;;;;2.63;2.42;;;20.10;61.40;;;;;;5061098;27;20400;-72
2023/06/07 11:07:31;;;;;;;4.13;2.58;;;20.10;61.80;;;;;;5039816;28;20049;-73
2023/06/07 11:10:33;;;;;;;2.83;2.63;;;20.10;61.20;;;;;;5057918;28;20059;-70
2023/06/07 11:13:01;;;;;;;2.67;2.40;;;20.10;62.10;;;;;;5057933;28;20135;-70
2023/06/07 11:15:31;;;;;;;2.70;2.50;;;20.10;62.70;;;;;;5063150;28;20049;-72
2023/06/07 11:18:05;;;;;;;4.20;2.47;;;20.10;62.40;;;;;;5060115;28;20394;-71
2023/06/07 11:20:48;;;;;;;2.50;2.30;;;20.10;62.90;;;;;;5062074;28;20724;-72
2023/06/07 11:23:31;;;;;;;3.83;2.20;;;20.20;63.60;;;;;;5066194;28;20054;-72
2023/06/07 11:26:11;;;;;;;3.70;2.50;;;20.20;62.80;;;;;;5066164;28;20068;-71
2023/06/07 11:28:40;;;;;;;2.67;2.38;;;20.30;62.40;;;;;;5059496;28;20048;-71
2023/06/07 11:31:09;;;;;;;5.20;2.22;;;20.30;62.90;;;;;;5059659;28;20178;-72
2023/06/07 11:33:37;;;;;;;2.35;2.15;;;20.40;62.00;;;;;;5061228;28;20430;-71
2023/06/07 11:36:04;;;;;;;2.15;2.05;;;20.40;62.60;;;;;;5066322;28;20045;-72
2023/06/07 11:38:32;;;;;;;2.95;2.28;;;20.40;62.50;;;;;;5061639;28;20044;-70
2023/06/07 11:40:59;;;;;;;2.85;1.98;;;20.50;62.30;;;;;;5057717;28;20127;-71
2023/06/07 11:43:29;;;;;;;3.05;2.45;;;20.50;62.20;;;;;;5058741;28;21092;-71
2023/06/07 11:45:57;;;;;;;4.90;2.08;;;20.50;61.50;;;;;;5057968;28;20076;-71
2023/06/07 11:48:27;;;;;;;1.60;1.50;;;20.60;61.60;;;;;;5064676;28;20048;-71
2023/06/07 11:50:56;;;;;;;2.05;1.92;;;20.60;61.50;;;;;;5062770;28;20180;-71
2023/06/07 11:53:23;;;;;;;1.70;1.60;;;20.70;60.20;;;;;;5059712;28;20056;-72
2023/06/07 11:55:51;;;;;;;3.15;1.85;;;20.70;60.40;;;;;;5081291;28;20045;-73
2023/06/07 11:58:18;;;;;;;2.55;2.15;;;20.70;60.50;;;;;;5063908;28;20052;-73
2023/06/07 12:00:46;;;;;;;3.42;1.73;;;20.70;61.20;;;;;;5057439;28;20048;-73
2023/06/07 12:03:16;;;;;;;3.05;2.00;;;20.70;60.20;;;;;;5059287;28;20397;-73
2023/06/07 12:05:44;;;;;;;1.58;1.48;;;20.70;60.30;;;;;;5061765;28;20056;-72
2023/06/07 12:08:17;;;;;;;2.45;2.25;;;20.70;60.20;;;;;;5059348;28;20142;-72
2023/06/07 12:10:55;;;;;;;2.70;1.63;;;20.70;60.70;;;;;;5056928;28;20049;-74
2023/06/07 12:13:23;;;;;;;2.67;2.20;;;20.70;61.60;;;;;;5076632;28;20114;-72
2023/06/07 12:15:58;;;;;;;2.83;2.15;;;20.70;61.60;;;;;;5051126;28;20049;-73
2023/06/07 12:18:34;;;;;;;1.92;1.75;;;20.80;61.30;;;;;;5046070;28;20053;-72
2023/06/07 12:21:07;;;;;;;1.95;1.85;;;20.80;61.20;;;;;;5042598;28;20106;-73
2023/06/07 12:23:44;;;;;;;3.20;2.40;;;20.80;62.10;;;;;;5047090;28;20124;-74
2023/06/07 12:26:17;;;;;;;2.53;1.63;;;20.80;61.30;;;;;;5042237;28;20068;-73
2023/06/07 12:28:48;;;;;;;2.00;1.70;;;20.90;59.70;;;;;;5047886;28;20540;-73
2023/06/07 12:31:26;;;;;;;1.60;1.50;;;20.80;60.30;;;;;;5044881;28;20131;-74
2023/06/07 12:33:59;;;;;;;1.67;1.58;;;20.90;61.40;;;;;;5039621;28;20057;-74
2023/06/07 12:36:28;;;;;;;2.58;1.90;;;20.80;60.30;;;;;;5047886;28;20133;-73
2023/06/07 12:39:02;;;;;;;1.70;1.60;;;20.80;61.20;;;;;;5042602;28;20044;-73
2023/06/07 12:41:30;;;;;;;2.30;1.73;;;20.70;62.30;;;;;;5043119;28;20091;-72
2023/06/07 12:44:03;;;;;;;2.10;1.98;;;20.70;62.50;;;;;;5044138;28;20056;-72
2023/06/07 12:46:30;;;;;;;1.83;1.70;;;20.60;63.70;;;;;;5043368;28;20049;-72
2023/06/07 12:48:59;;;;;;;3.25;1.90;;;20.60;63.70;;;;;;5045874;28;20052;-72
2023/06/07 12:51:26;;;;;;;1.77;1.67;;;20.50;64.00;;;;;;5048453;28;20098;-71
2023/06/07 12:53:54;;;;;;;2.28;1.55;;;20.50;63.10;;;;;;5046030;28;20107;-71
2023/06/07 12:56:22;;;;;;;1.50;1.40;;;20.50;62.80;;;;;;5048900;28;20498;-72
2023/06/07 12:58:50;;;;;;;1.40;1.30;;;20.40;61.90;;;;;;5044403;28;20048;-75